sensor_id;sensor_type;location;lat;lon;timestamp;P1;durP1;ratioP1;P2;durP2;ratioP2
61015;SDS011;46902;52.920;6.536;2023-07-31T00:01:01;4.78;;;2.20;;
61015;SDS011;46902;52.920;6.536;2023-07-31T00:03:27;8.13;;;2.72;;
61015;SDS011;46902;52.920;6.536;2023-07-31T00:05:52;4.00;;;2.67;;
61015;SDS011;46902;52.920;6.536;2023-07-31T00:08:18;4.00;;;2.58;;
61015;SDS011;46902;52.920;6.536;2023-07-31T00:10:43;5.53;;;2.97;;
61015;SDS011;46902;52.920;6.536;2023-07-31T00:13:09;3.67;;;2.35;;
61015;SDS011;46902;52.920;6.536;2023-07-31T00:15:34;6.05;;;2.72;;
61015;SDS011;46902;52.920;6.536;2023-07-31T00:18:00;4.80;;;2.58;;
61015;SDS011;46902;52.920;6.536;2023-07-31T00:20:26;4.95;;;2.60;;
61015;SDS011;46902;52.920;6.536;2023-07-31T00:22:52;6.15;;;2.80;;
61015;SDS011;46902;52.920;6.536;2023-07-31T00:25:17;4.40;;;2.65;;
61015;SDS011;46902;52.920;6.536;2023-07-31T00:27:43;5.40;;;2.90;;
61015;SDS011;46902;52.920;6.536;2023-07-31T00:30:11;4.15;;;2.60;;
61015;SDS011;46902;52.920;6.536;2023-07-31T00:32:36;5.47;;;2.90;;
61015;SDS011;46902;52.920;6.536;2023-07-31T00:35:02;6.03;;;2.95;;
61015;SDS011;46902;52.920;6.536;2023-07-31T00:37:28;4.82;;;3.05;;
61015;SDS011;46902;52.920;6.536;2023-07-31T00:39:53;4.80;;;3.20;;
61015;SDS011;46902;52.920;6.536;2023-07-31T00:42:19;6.40;;;3.35;;
61015;SDS011;46902;52.920;6.536;2023-07-31T00:44:44;4.65;;;2.83;;
61015;SDS011;46902;52.920;6.536;2023-07-31T00:47:10;4.30;;;2.90;;
61015;SDS011;46902;52.920;6.536;2023-07-31T00:49:36;6.97;;;3.05;;
61015;SDS011;46902;52.920;6.536;2023-07-31T00:52:02;5.88;;;2.80;;
61015;SDS011;46902;52.920;6.536;2023-07-31T00:54:28;4.68;;;3.00;;
61015;SDS011;46902;52.920;6.536;2023-07-31T00:56:54;5.35;;;2.65;;
61015;SDS011;46902;52.920;6.536;2023-07-31T00:59:20;3.40;;;2.25;;
61015;SDS011;46902;52.920;6.536;2023-07-31T01:01:45;3.75;;;2.15;;
61015;SDS011;46902;52.920;6.536;2023-07-31T01:04:11;3.83;;;1.88;;
61015;SDS011;46902;52.920;6.536;2023-07-31T01:06:45;4.35;;;2.20;;
61015;SDS011;46902;52.920;6.536;2023-07-31T01:12:13;3.03;;;1.55;;
61015;SDS011;46902;52.920;6.536;2023-07-31T01:14:40;3.35;;;1.67;;
61015;SDS011;46902;52.920;6.536;2023-07-31T01:17:06;2.75;;;1.33;;
61015;SDS011;46902;52.920;6.536;2023-07-31T01:19:31;2.75;;;1.30;;
61015;SDS011;46902;52.920;6.536;2023-07-31T01:27:28;2.97;;;1.33;;
61015;SDS011;46902;52.920;6.536;2023-07-31T01:30:03;2.17;;;1.00;;
61015;SDS011;46902;52.920;6.536;2023-07-31T01:32:36;2.65;;;1.25;;
61015;SDS011;46902;52.920;6.536;2023-07-31T01:35:05;2.97;;;0.80;;
61015;SDS011;46902;52.920;6.536;2023-07-31T01:37:31;1.88;;;1.13;;
61015;SDS011;46902;52.920;6.536;2023-07-31T01:39:57;1.48;;;0.93;;
61015;SDS011;46902;52.920;6.536;2023-07-31T01:42:22;2.13;;;1.10;;
61015;SDS011;46902;52.920;6.536;2023-07-31T01:44:48;2.92;;;1.45;;
61015;SDS011;46902;52.920;6.536;2023-07-31T01:47:14;1.60;;;0.82;;
61015;SDS011;46902;52.920;6.536;2023-07-31T01:49:39;2.55;;;1.13;;
61015;SDS011;46902;52.920;6.536;2023-07-31T01:52:05;1.92;;;0.98;;
61015;SDS011;46902;52.920;6.536;2023-07-31T01:54:31;3.00;;;1.30;;
61015;SDS011;46902;52.920;6.536;2023-07-31T01:56:56;2.08;;;1.10;;
61015;SDS011;46902;52.920;6.536;2023-07-31T01:59:22;6.85;;;1.23;;
61015;SDS011;46902;52.920;6.536;2023-07-31T02:01:48;1.83;;;0.93;;
61015;SDS011;46902;52.920;6.536;2023-07-31T02:04:13;2.95;;;0.98;;
61015;SDS011;46902;52.920;6.536;2023-07-31T02:06:39;2.35;;;0.80;;
61015;SDS011;46902;52.920;6.536;2023-07-31T02:09:05;1.70;;;0.90;;
61015;SDS011;46902;52.920;6.536;2023-07-31T02:11:30;2.08;;;1.02;;
61015;SDS011;46902;52.920;6.536;2023-07-31T02:13:56;1.33;;;0.75;;
61015;SDS011;46902;52.920;6.536;2023-07-31T02:16:21;1.58;;;1.00;;
61015;SDS011;46902;52.920;6.536;2023-07-31T02:18:47;1.23;;;0.70;;
61015;SDS011;46902;52.920;6.536;2023-07-31T02:21:12;1.15;;;0.82;;
61015;SDS011;46902;52.920;6.536;2023-07-31T02:23:38;0.90;;;0.55;;
61015;SDS011;46902;52.920;6.536;2023-07-31T02:26:04;1.38;;;0.75;;
61015;SDS011;46902;52.920;6.536;2023-07-31T02:28:29;1.35;;;0.80;;
61015;SDS011;46902;52.920;6.536;2023-07-31T02:30:55;1.48;;;0.80;;
61015;SDS011;46902;52.920;6.536;2023-07-31T02:33:20;0.90;;;0.50;;
61015;SDS011;46902;52.920;6.536;2023-07-31T02:35:46;1.83;;;0.80;;
61015;SDS011;46902;52.920;6.536;2023-07-31T02:38:12;0.95;;;0.52;;
61015;SDS011;46902;52.920;6.536;2023-07-31T02:40:38;1.65;;;0.70;;
61015;SDS011;46902;52.920;6.536;2023-07-31T02:43:06;0.90;;;0.50;;
61015;SDS011;46902;52.920;6.536;2023-07-31T02:45:32;0.75;;;0.60;;
61015;SDS011;46902;52.920;6.536;2023-07-31T02:47:57;1.33;;;0.60;;
61015;SDS011;46902;52.920;6.536;2023-07-31T02:50:23;0.85;;;0.43;;
61015;SDS011;46902;52.920;6.536;2023-07-31T02:52:49;2.22;;;0.55;;
61015;SDS011;46902;52.920;6.536;2023-07-31T02:55:14;0.80;;;0.52;;
61015;SDS011;46902;52.920;6.536;2023-07-31T02:57:40;1.13;;;0.60;;
61015;SDS011;46902;52.920;6.536;2023-07-31T03:00:06;1.92;;;0.80;;
61015;SDS011;46902;52.920;6.536;2023-07-31T03:02:32;1.00;;;0.60;;
61015;SDS011;46902;52.920;6.536;2023-07-31T03:04:57;1.73;;;0.60;;
61015;SDS011;46902;52.920;6.536;2023-07-31T03:07:23;0.57;;;0.45;;
61015;SDS011;46902;52.920;6.536;2023-07-31T03:09:49;1.58;;;0.65;;
61015;SDS011;46902;52.920;6.536;2023-07-31T03:12:14;2.22;;;1.02;;
61015;SDS011;46902;52.920;6.536;2023-07-31T03:14:40;1.35;;;0.70;;
61015;SDS011;46902;52.920;6.536;2023-07-31T03:17:06;1.83;;;1.00;;
61015;SDS011;46902;52.920;6.536;2023-07-31T03:19:31;2.00;;;0.85;;
61015;SDS011;46902;52.920;6.536;2023-07-31T03:21:57;2.90;;;0.77;;
61015;SDS011;46902;52.920;6.536;2023-07-31T03:24:23;2.50;;;1.02;;
61015;SDS011;46902;52.920;6.536;2023-07-31T03:26:49;1.38;;;0.52;;
61015;SDS011;46902;52.920;6.536;2023-07-31T03:29:15;1.02;;;0.40;;
61015;SDS011;46902;52.920;6.536;2023-07-31T03:31:40;1.95;;;0.60;;
61015;SDS011;46902;52.920;6.536;2023-07-31T03:34:06;2.15;;;0.30;;
61015;SDS011;46902;52.920;6.536;2023-07-31T03:36:31;1.20;;;0.47;;
61015;SDS011;46902;52.920;6.536;2023-07-31T03:38:57;0.63;;;0.20;;
61015;SDS011;46902;52.920;6.536;2023-07-31T03:41:23;1.92;;;0.30;;
61015;SDS011;46902;52.920;6.536;2023-07-31T03:43:49;0.88;;;0.35;;
61015;SDS011;46902;52.920;6.536;2023-07-31T03:46:17;1.05;;;0.40;;
61015;SDS011;46902;52.920;6.536;2023-07-31T03:48:42;1.45;;;0.38;;
61015;SDS011;46902;52.920;6.536;2023-07-31T03:51:08;0.75;;;0.20;;
61015;SDS011;46902;52.920;6.536;2023-07-31T03:53:33;0.93;;;0.40;;
61015;SDS011;46902;52.920;6.536;2023-07-31T03:55:59;1.63;;;0.40;;
61015;SDS011;46902;52.920;6.536;2023-07-31T03:58:25;1.10;;;0.35;;
61015;SDS011;46902;52.920;6.536;2023-07-31T04:00:50;0.40;;;0.20;;
61015;SDS011;46902;52.920;6.536;2023-07-31T04:03:16;1.17;;;0.30;;
61015;SDS011;46902;52.920;6.536;2023-07-31T04:05:41;0.80;;;0.32;;
61015;SDS011;46902;52.920;6.536;2023-07-31T04:08:07;1.33;;;0.40;;
61015;SDS011;46902;52.920;6.536;2023-07-31T04:10:32;1.10;;;0.40;;
61015;SDS011;46902;52.920;6.536;2023-07-31T04:12:58;0.73;;;0.30;;
61015;SDS011;46902;52.920;6.536;2023-07-31T04:15:25;2.33;;;0.40;;
61015;SDS011;46902;52.920;6.536;2023-07-31T04:17:51;1.25;;;0.30;;
61015;SDS011;46902;52.920;6.536;2023-07-31T04:20:16;1.88;;;0.60;;
61015;SDS011;46902;52.920;6.536;2023-07-31T04:22:42;1.55;;;0.40;;
61015;SDS011;46902;52.920;6.536;2023-07-31T04:25:08;2.65;;;0.50;;
61015;SDS011;46902;52.920;6.536;2023-07-31T04:27:33;3.20;;;0.60;;
61015;SDS011;46902;52.920;6.536;2023-07-31T04:29:59;7.30;;;1.02;;
61015;SDS011;46902;52.920;6.536;2023-07-31T04:32:24;3.40;;;1.00;;
61015;SDS011;46902;52.920;6.536;2023-07-31T04:34:50;1.77;;;0.82;;
61015;SDS011;46902;52.920;6.536;2023-07-31T04:37:16;2.78;;;0.70;;
61015;SDS011;46902;52.920;6.536;2023-07-31T04:39:41;1.90;;;0.73;;
61015;SDS011;46902;52.920;6.536;2023-07-31T04:42:07;3.28;;;0.75;;
61015;SDS011;46902;52.920;6.536;2023-07-31T04:44:32;3.88;;;1.23;;
61015;SDS011;46902;52.920;6.536;2023-07-31T04:46:58;4.15;;;1.10;;
61015;SDS011;46902;52.920;6.536;2023-07-31T04:49:24;3.15;;;1.25;;
61015;SDS011;46902;52.920;6.536;2023-07-31T04:51:49;5.85;;;1.33;;
61015;SDS011;46902;52.920;6.536;2023-07-31T04:54:15;6.22;;;1.90;;
61015;SDS011;46902;52.920;6.536;2023-07-31T04:56:40;8.70;;;2.67;;
61015;SDS011;46902;52.920;6.536;2023-07-31T04:59:06;7.95;;;3.33;;
61015;SDS011;46902;52.920;6.536;2023-07-31T05:01:32;11.18;;;3.92;;
61015;SDS011;46902;52.920;6.536;2023-07-31T05:03:57;9.57;;;3.75;;
61015;SDS011;46902;52.920;6.536;2023-07-31T05:06:23;10.88;;;4.22;;
61015;SDS011;46902;52.920;6.536;2023-07-31T05:08:48;12.90;;;4.82;;
61015;SDS011;46902;52.920;6.536;2023-07-31T05:11:14;13.05;;;5.25;;
61015;SDS011;46902;52.920;6.536;2023-07-31T05:13:39;19.17;;;6.82;;
61015;SDS011;46902;52.920;6.536;2023-07-31T05:16:05;19.65;;;6.68;;
61015;SDS011;46902;52.920;6.536;2023-07-31T05:18:31;25.20;;;7.38;;
61015;SDS011;46902;52.920;6.536;2023-07-31T05:20:56;22.40;;;6.80;;
61015;SDS011;46902;52.920;6.536;2023-07-31T05:23:22;17.05;;;6.32;;
61015;SDS011;46902;52.920;6.536;2023-07-31T05:25:47;25.55;;;7.63;;
61015;SDS011;46902;52.920;6.536;2023-07-31T05:28:13;19.08;;;6.82;;
61015;SDS011;46902;52.920;6.536;2023-07-31T05:30:38;26.77;;;8.05;;
61015;SDS011;46902;52.920;6.536;2023-07-31T05:33:04;17.17;;;6.40;;
61015;SDS011;46902;52.920;6.536;2023-07-31T05:35:29;25.77;;;7.20;;
61015;SDS011;46902;52.920;6.536;2023-07-31T05:37:55;20.90;;;7.45;;
61015;SDS011;46902;52.920;6.536;2023-07-31T05:40:21;27.15;;;7.57;;
61015;SDS011;46902;52.920;6.536;2023-07-31T05:42:46;22.98;;;7.60;;
61015;SDS011;46902;52.920;6.536;2023-07-31T05:45:12;25.02;;;7.20;;
61015;SDS011;46902;52.920;6.536;2023-07-31T05:47:38;26.05;;;7.88;;
61015;SDS011;46902;52.920;6.536;2023-07-31T05:50:04;28.23;;;8.52;;
61015;SDS011;46902;52.920;6.536;2023-07-31T05:52:30;27.83;;;8.05;;
61015;SDS011;46902;52.920;6.536;2023-07-31T05:54:56;28.27;;;7.93;;
61015;SDS011;46902;52.920;6.536;2023-07-31T05:57:21;27.42;;;7.40;;
61015;SDS011;46902;52.920;6.536;2023-07-31T05:59:47;24.92;;;7.95;;
61015;SDS011;46902;52.920;6.536;2023-07-31T06:02:13;25.35;;;8.15;;
61015;SDS011;46902;52.920;6.536;2023-07-31T06:04:38;28.27;;;8.30;;
61015;SDS011;46902;52.920;6.536;2023-07-31T06:07:04;27.95;;;7.95;;
61015;SDS011;46902;52.920;6.536;2023-07-31T06:09:30;31.55;;;9.00;;
61015;SDS011;46902;52.920;6.536;2023-07-31T06:11:56;28.58;;;8.80;;
61015;SDS011;46902;52.920;6.536;2023-07-31T06:14:21;25.60;;;8.20;;
61015;SDS011;46902;52.920;6.536;2023-07-31T06:16:47;26.42;;;8.55;;
61015;SDS011;46902;52.920;6.536;2023-07-31T06:19:13;28.33;;;8.73;;
61015;SDS011;46902;52.920;6.536;2023-07-31T06:21:38;30.90;;;7.75;;
61015;SDS011;46902;52.920;6.536;2023-07-31T06:24:07;21.55;;;7.00;;
61015;SDS011;46902;52.920;6.536;2023-07-31T06:26:33;14.45;;;6.03;;
61015;SDS011;46902;52.920;6.536;2023-07-31T06:28:58;23.50;;;7.07;;
61015;SDS011;46902;52.920;6.536;2023-07-31T06:31:24;16.23;;;6.25;;
61015;SDS011;46902;52.920;6.536;2023-07-31T06:33:50;21.00;;;7.18;;
61015;SDS011;46902;52.920;6.536;2023-07-31T06:36:17;25.10;;;7.68;;
61015;SDS011;46902;52.920;6.536;2023-07-31T06:38:43;23.02;;;7.03;;
61015;SDS011;46902;52.920;6.536;2023-07-31T06:41:08;27.33;;;7.70;;
61015;SDS011;46902;52.920;6.536;2023-07-31T06:43:35;24.58;;;8.15;;
61015;SDS011;46902;52.920;6.536;2023-07-31T06:46:05;26.58;;;8.35;;
61015;SDS011;46902;52.920;6.536;2023-07-31T06:48:31;28.00;;;8.43;;
61015;SDS011;46902;52.920;6.536;2023-07-31T06:50:58;26.83;;;8.52;;
61015;SDS011;46902;52.920;6.536;2023-07-31T06:53:23;26.38;;;8.75;;
61015;SDS011;46902;52.920;6.536;2023-07-31T06:55:49;30.58;;;9.07;;
61015;SDS011;46902;52.920;6.536;2023-07-31T06:58:16;29.58;;;9.55;;
61015;SDS011;46902;52.920;6.536;2023-07-31T07:00:42;25.38;;;8.65;;
61015;SDS011;46902;52.920;6.536;2023-07-31T07:03:08;24.83;;;9.02;;
61015;SDS011;46902;52.920;6.536;2023-07-31T07:05:33;28.40;;;9.45;;
61015;SDS011;46902;52.920;6.536;2023-07-31T07:07:59;20.77;;;7.70;;
61015;SDS011;46902;52.920;6.536;2023-07-31T07:10:25;20.25;;;7.63;;
61015;SDS011;46902;52.920;6.536;2023-07-31T07:12:50;19.77;;;6.97;;
61015;SDS011;46902;52.920;6.536;2023-07-31T07:15:16;16.25;;;5.65;;
61015;SDS011;46902;52.920;6.536;2023-07-31T07:17:42;19.90;;;6.47;;
61015;SDS011;46902;52.920;6.536;2023-07-31T07:20:08;13.50;;;5.72;;
61015;SDS011;46902;52.920;6.536;2023-07-31T07:22:33;10.77;;;4.70;;
61015;SDS011;46902;52.920;6.536;2023-07-31T07:24:59;10.73;;;4.10;;
61015;SDS011;46902;52.920;6.536;2023-07-31T07:27:25;10.60;;;4.30;;
61015;SDS011;46902;52.920;6.536;2023-07-31T07:29:50;12.82;;;4.38;;
61015;SDS011;46902;52.920;6.536;2023-07-31T07:32:17;7.22;;;3.53;;
61015;SDS011;46902;52.920;6.536;2023-07-31T07:34:43;8.65;;;3.45;;
61015;SDS011;46902;52.920;6.536;2023-07-31T07:37:09;7.82;;;3.72;;
61015;SDS011;46902;52.920;6.536;2023-07-31T07:39:34;9.73;;;3.90;;
61015;SDS011;46902;52.920;6.536;2023-07-31T07:42:00;10.25;;;4.18;;
61015;SDS011;46902;52.920;6.536;2023-07-31T07:44:25;9.55;;;3.55;;
61015;SDS011;46902;52.920;6.536;2023-07-31T07:46:51;10.30;;;4.20;;
61015;SDS011;46902;52.920;6.536;2023-07-31T07:49:17;8.75;;;3.20;;
61015;SDS011;46902;52.920;6.536;2023-07-31T07:51:43;6.53;;;3.33;;
61015;SDS011;46902;52.920;6.536;2023-07-31T07:54:08;8.38;;;3.47;;
61015;SDS011;46902;52.920;6.536;2023-07-31T07:56:34;6.88;;;3.13;;
61015;SDS011;46902;52.920;6.536;2023-07-31T07:59:01;5.72;;;2.88;;
61015;SDS011;46902;52.920;6.536;2023-07-31T08:01:27;5.38;;;2.63;;
61015;SDS011;46902;52.920;6.536;2023-07-31T08:03:52;6.35;;;2.50;;
61015;SDS011;46902;52.920;6.536;2023-07-31T08:06:18;4.28;;;2.10;;
61015;SDS011;46902;52.920;6.536;2023-07-31T08:08:44;6.10;;;2.65;;
61015;SDS011;46902;52.920;6.536;2023-07-31T08:11:09;5.07;;;2.28;;
61015;SDS011;46902;52.920;6.536;2023-07-31T08:13:35;6.00;;;2.28;;
61015;SDS011;46902;52.920;6.536;2023-07-31T08:16:02;7.45;;;2.63;;
61015;SDS011;46902;52.920;6.536;2023-07-31T08:18:28;4.72;;;2.30;;
61015;SDS011;46902;52.920;6.536;2023-07-31T08:20:54;4.93;;;1.95;;
61015;SDS011;46902;52.920;6.536;2023-07-31T08:23:19;4.90;;;2.40;;
61015;SDS011;46902;52.920;6.536;2023-07-31T08:25:45;4.80;;;2.00;;
61015;SDS011;46902;52.920;6.536;2023-07-31T08:28:11;2.95;;;1.98;;
61015;SDS011;46902;52.920;6.536;2023-07-31T08:30:36;4.03;;;1.70;;
61015;SDS011;46902;52.920;6.536;2023-07-31T08:33:02;5.40;;;1.90;;
61015;SDS011;46902;52.920;6.536;2023-07-31T08:35:28;4.00;;;1.70;;
61015;SDS011;46902;52.920;6.536;2023-07-31T08:37:53;3.25;;;1.58;;
61015;SDS011;46902;52.920;6.536;2023-07-31T08:40:19;3.63;;;1.55;;
61015;SDS011;46902;52.920;6.536;2023-07-31T08:42:47;2.90;;;1.60;;
61015;SDS011;46902;52.920;6.536;2023-07-31T08:45:14;3.38;;;1.60;;
61015;SDS011;46902;52.920;6.536;2023-07-31T08:47:46;3.50;;;1.50;;
61015;SDS011;46902;52.920;6.536;2023-07-31T08:50:13;3.42;;;1.20;;
61015;SDS011;46902;52.920;6.536;2023-07-31T08:52:41;3.83;;;1.80;;
61015;SDS011;46902;52.920;6.536;2023-07-31T08:55:07;3.97;;;1.70;;
61015;SDS011;46902;52.920;6.536;2023-07-31T08:57:37;2.03;;;1.33;;
61015;SDS011;46902;52.920;6.536;2023-07-31T09:00:04;3.20;;;1.60;;
61015;SDS011;46902;52.920;6.536;2023-07-31T09:02:35;2.40;;;1.58;;
61015;SDS011;46902;52.920;6.536;2023-07-31T09:05:06;2.47;;;1.20;;
61015;SDS011;46902;52.920;6.536;2023-07-31T09:07:33;2.40;;;1.30;;
61015;SDS011;46902;52.920;6.536;2023-07-31T09:10:01;3.03;;;1.10;;
61015;SDS011;46902;52.920;6.536;2023-07-31T09:12:27;1.98;;;0.88;;
61015;SDS011;46902;52.920;6.536;2023-07-31T09:14:53;2.05;;;0.90;;
61015;SDS011;46902;52.920;6.536;2023-07-31T09:17:31;1.73;;;0.88;;
61015;SDS011;46902;52.920;6.536;2023-07-31T09:22:44;2.57;;;1.10;;
61015;SDS011;46902;52.920;6.536;2023-07-31T09:25:16;1.80;;;0.93;;
61015;SDS011;46902;52.920;6.536;2023-07-31T09:30:17;2.78;;;0.77;;
61015;SDS011;46902;52.920;6.536;2023-07-31T09:32:43;1.70;;;0.68;;
61015;SDS011;46902;52.920;6.536;2023-07-31T09:35:19;1.90;;;0.70;;
61015;SDS011;46902;52.920;6.536;2023-07-31T09:38:09;2.63;;;0.70;;
61015;SDS011;46902;52.920;6.536;2023-07-31T09:40:40;1.20;;;0.75;;
61015;SDS011;46902;52.920;6.536;2023-07-31T09:43:11;1.20;;;0.60;;
61015;SDS011;46902;52.920;6.536;2023-07-31T09:45:39;3.95;;;0.60;;
61015;SDS011;46902;52.920;6.536;2023-07-31T09:48:09;4.50;;;0.77;;
61015;SDS011;46902;52.920;6.536;2023-07-31T09:50:42;1.65;;;0.77;;
61015;SDS011;46902;52.920;6.536;2023-07-31T09:53:12;2.55;;;0.73;;
61015;SDS011;46902;52.920;6.536;2023-07-31T09:55:38;1.15;;;0.60;;
61015;SDS011;46902;52.920;6.536;2023-07-31T09:58:06;1.00;;;0.70;;
61015;SDS011;46902;52.920;6.536;2023-07-31T10:00:33;1.02;;;0.50;;
61015;SDS011;46902;52.920;6.536;2023-07-31T10:03:00;1.88;;;0.60;;
61015;SDS011;46902;52.920;6.536;2023-07-31T10:05:30;2.45;;;0.70;;
61015;SDS011;46902;52.920;6.536;2023-07-31T10:07:59;0.70;;;0.50;;
61015;SDS011;46902;52.920;6.536;2023-07-31T10:10:25;1.52;;;0.77;;
61015;SDS011;46902;52.920;6.536;2023-07-31T10:12:52;1.63;;;0.60;;
61015;SDS011;46902;52.920;6.536;2023-07-31T10:15:19;2.65;;;0.75;;
61015;SDS011;46902;52.920;6.536;2023-07-31T10:17:46;0.77;;;0.40;;
61015;SDS011;46902;52.920;6.536;2023-07-31T10:20:13;0.85;;;0.50;;
61015;SDS011;46902;52.920;6.536;2023-07-31T10:22:41;1.52;;;0.77;;
61015;SDS011;46902;52.920;6.536;2023-07-31T10:25:07;1.85;;;0.90;;
61015;SDS011;46902;52.920;6.536;2023-07-31T10:27:41;1.48;;;0.77;;
61015;SDS011;46902;52.920;6.536;2023-07-31T10:30:08;2.50;;;1.10;;
61015;SDS011;46902;52.920;6.536;2023-07-31T10:32:36;1.88;;;0.88;;
61015;SDS011;46902;52.920;6.536;2023-07-31T10:35:05;1.10;;;0.90;;
61015;SDS011;46902;52.920;6.536;2023-07-31T10:37:39;1.40;;;1.20;;
61015;SDS011;46902;52.920;6.536;2023-07-31T10:40:11;1.45;;;0.90;;
61015;SDS011;46902;52.920;6.536;2023-07-31T10:45:37;1.17;;;0.52;;
61015;SDS011;46902;52.920;6.536;2023-07-31T10:48:14;1.25;;;0.55;;
61015;SDS011;46902;52.920;6.536;2023-07-31T10:50:47;1.00;;;0.73;;
61015;SDS011;46902;52.920;6.536;2023-07-31T10:53:24;0.82;;;0.50;;
61015;SDS011;46902;52.920;6.536;2023-07-31T10:55:51;1.10;;;0.50;;
61015;SDS011;46902;52.920;6.536;2023-07-31T10:58:20;0.73;;;0.60;;
61015;SDS011;46902;52.920;6.536;2023-07-31T11:00:47;0.82;;;0.40;;
61015;SDS011;46902;52.920;6.536;2023-07-31T11:08:12;0.15;;;0.15;;
61015;SDS011;46902;52.920;6.536;2023-07-31T11:10:48;0.23;;;0.23;;
61015;SDS011;46902;52.920;6.536;2023-07-31T11:14:09;0.70;;;0.38;;
61015;SDS011;46902;52.920;6.536;2023-07-31T11:16:23;0.32;;;0.20;;
61015;SDS011;46902;52.920;6.536;2023-07-31T11:18:49;1.40;;;0.20;;
61015;SDS011;46902;52.920;6.536;2023-07-31T11:21:19;1.05;;;0.28;;
61015;SDS011;46902;52.920;6.536;2023-07-31T11:23:50;1.35;;;0.30;;
61015;SDS011;46902;52.920;6.536;2023-07-31T11:26:18;2.20;;;0.30;;
61015;SDS011;46902;52.920;6.536;2023-07-31T11:28:47;2.78;;;0.40;;
61015;SDS011;46902;52.920;6.536;2023-07-31T11:31:14;1.92;;;0.40;;
61015;SDS011;46902;52.920;6.536;2023-07-31T11:33:39;0.98;;;0.40;;
61015;SDS011;46902;52.920;6.536;2023-07-31T11:36:05;2.45;;;0.40;;
61015;SDS011;46902;52.920;6.536;2023-07-31T11:38:39;1.98;;;0.70;;
61015;SDS011;46902;52.920;6.536;2023-07-31T11:41:05;2.17;;;0.60;;
61015;SDS011;46902;52.920;6.536;2023-07-31T11:43:30;4.75;;;0.90;;
61015;SDS011;46902;52.920;6.536;2023-07-31T11:45:58;2.22;;;0.90;;
61015;SDS011;46902;52.920;6.536;2023-07-31T11:48:28;3.17;;;1.02;;
61015;SDS011;46902;52.920;6.536;2023-07-31T11:50:58;3.05;;;0.90;;
61015;SDS011;46902;52.920;6.536;2023-07-31T11:53:37;4.82;;;1.48;;
61015;SDS011;46902;52.920;6.536;2023-07-31T11:56:06;6.28;;;0.95;;
61015;SDS011;46902;52.920;6.536;2023-07-31T11:58:36;2.13;;;0.50;;
61015;SDS011;46902;52.920;6.536;2023-07-31T12:01:03;2.38;;;0.40;;
61015;SDS011;46902;52.920;6.536;2023-07-31T12:03:30;0.73;;;0.22;;
61015;SDS011;46902;52.920;6.536;2023-07-31T12:05:58;1.95;;;0.40;;
61015;SDS011;46902;52.920;6.536;2023-07-31T12:08:24;0.40;;;0.22;;
61015;SDS011;46902;52.920;6.536;2023-07-31T12:10:51;2.55;;;0.40;;
61015;SDS011;46902;52.920;6.536;2023-07-31T12:13:24;1.95;;;0.40;;
61015;SDS011;46902;52.920;6.536;2023-07-31T12:15:58;1.00;;;0.40;;
61015;SDS011;46902;52.920;6.536;2023-07-31T12:18:25;1.00;;;0.30;;
61015;SDS011;46902;52.920;6.536;2023-07-31T12:23:26;1.75;;;0.63;;
61015;SDS011;46902;52.920;6.536;2023-07-31T12:28:41;2.70;;;0.85;;
61015;SDS011;46902;52.920;6.536;2023-07-31T12:31:08;2.50;;;0.70;;
61015;SDS011;46902;52.920;6.536;2023-07-31T12:33:36;1.90;;;0.80;;
61015;SDS011;46902;52.920;6.536;2023-07-31T12:36:04;2.50;;;0.60;;
61015;SDS011;46902;52.920;6.536;2023-07-31T12:38:34;2.72;;;0.65;;
61015;SDS011;46902;52.920;6.536;2023-07-31T12:41:00;3.03;;;0.57;;
61015;SDS011;46902;52.920;6.536;2023-07-31T12:43:26;2.40;;;0.50;;
61015;SDS011;46902;52.920;6.536;2023-07-31T12:45:53;2.35;;;0.73;;
61015;SDS011;46902;52.920;6.536;2023-07-31T12:48:19;2.88;;;1.00;;
61015;SDS011;46902;52.920;6.536;2023-07-31T12:50:45;2.95;;;0.70;;
61015;SDS011;46902;52.920;6.536;2023-07-31T12:53:10;1.83;;;0.80;;
61015;SDS011;46902;52.920;6.536;2023-07-31T12:55:36;5.05;;;0.95;;
61015;SDS011;46902;52.920;6.536;2023-07-31T12:58:02;2.25;;;0.63;;
61015;SDS011;46902;52.920;6.536;2023-07-31T13:00:28;2.38;;;0.80;;
61015;SDS011;46902;52.920;6.536;2023-07-31T13:02:54;2.03;;;0.70;;
61015;SDS011;46902;52.920;6.536;2023-07-31T13:05:20;3.30;;;0.95;;
61015;SDS011;46902;52.920;6.536;2023-07-31T13:07:46;2.63;;;0.80;;
61015;SDS011;46902;52.920;6.536;2023-07-31T13:10:14;3.47;;;1.00;;
61015;SDS011;46902;52.920;6.536;2023-07-31T13:12:40;4.22;;;1.20;;
61015;SDS011;46902;52.920;6.536;2023-07-31T13:15:06;3.45;;;1.13;;
61015;SDS011;46902;52.920;6.536;2023-07-31T13:17:32;5.03;;;1.30;;
61015;SDS011;46902;52.920;6.536;2023-07-31T13:19:58;3.45;;;1.30;;
61015;SDS011;46902;52.920;6.536;2023-07-31T13:22:24;8.75;;;1.70;;
61015;SDS011;46902;52.920;6.536;2023-07-31T13:24:50;5.47;;;1.70;;
61015;SDS011;46902;52.920;6.536;2023-07-31T13:27:16;7.80;;;2.05;;
61015;SDS011;46902;52.920;6.536;2023-07-31T13:29:46;6.30;;;1.90;;
61015;SDS011;46902;52.920;6.536;2023-07-31T13:32:13;8.10;;;2.05;;
61015;SDS011;46902;52.920;6.536;2023-07-31T13:34:39;7.75;;;2.13;;
61015;SDS011;46902;52.920;6.536;2023-07-31T13:37:04;8.27;;;2.22;;
61015;SDS011;46902;52.920;6.536;2023-07-31T13:39:31;8.30;;;2.58;;
61015;SDS011;46902;52.920;6.536;2023-07-31T13:41:58;10.43;;;2.28;;
61015;SDS011;46902;52.920;6.536;2023-07-31T13:44:23;7.40;;;2.25;;
61015;SDS011;46902;52.920;6.536;2023-07-31T13:46:49;8.18;;;2.50;;
61015;SDS011;46902;52.920;6.536;2023-07-31T13:49:14;7.50;;;2.30;;
61015;SDS011;46902;52.920;6.536;2023-07-31T13:51:40;10.10;;;3.65;;
61015;SDS011;46902;52.920;6.536;2023-07-31T13:54:06;9.00;;;2.78;;
61015;SDS011;46902;52.920;6.536;2023-07-31T13:56:32;12.82;;;2.70;;
61015;SDS011;46902;52.920;6.536;2023-07-31T13:58:57;9.00;;;2.50;;
61015;SDS011;46902;52.920;6.536;2023-07-31T14:01:23;10.13;;;2.40;;
61015;SDS011;46902;52.920;6.536;2023-07-31T14:03:49;8.55;;;2.13;;
61015;SDS011;46902;52.920;6.536;2023-07-31T14:06:14;8.98;;;2.53;;
61015;SDS011;46902;52.920;6.536;2023-07-31T14:08:40;12.75;;;2.47;;
61015;SDS011;46902;52.920;6.536;2023-07-31T14:11:05;10.40;;;3.30;;
61015;SDS011;46902;52.920;6.536;2023-07-31T14:13:31;12.25;;;2.85;;
61015;SDS011;46902;52.920;6.536;2023-07-31T14:15:57;7.40;;;2.55;;
61015;SDS011;46902;52.920;6.536;2023-07-31T14:18:22;8.63;;;3.25;;
61015;SDS011;46902;52.920;6.536;2023-07-31T14:20:48;10.55;;;2.95;;
61015;SDS011;46902;52.920;6.536;2023-07-31T14:23:14;12.75;;;3.55;;
61015;SDS011;46902;52.920;6.536;2023-07-31T14:25:40;10.05;;;2.95;;
61015;SDS011;46902;52.920;6.536;2023-07-31T14:28:06;8.75;;;2.60;;
61015;SDS011;46902;52.920;6.536;2023-07-31T14:30:32;10.77;;;2.95;;
61015;SDS011;46902;52.920;6.536;2023-07-31T14:32:57;11.68;;;3.38;;
61015;SDS011;46902;52.920;6.536;2023-07-31T14:35:25;11.15;;;3.17;;
61015;SDS011;46902;52.920;6.536;2023-07-31T14:37:51;10.55;;;3.22;;
61015;SDS011;46902;52.920;6.536;2023-07-31T14:40:16;8.32;;;3.05;;
61015;SDS011;46902;52.920;6.536;2023-07-31T14:42:42;8.70;;;2.72;;
61015;SDS011;46902;52.920;6.536;2023-07-31T14:45:08;11.35;;;3.00;;
61015;SDS011;46902;52.920;6.536;2023-07-31T14:47:35;10.88;;;2.92;;
61015;SDS011;46902;52.920;6.536;2023-07-31T14:50:01;7.88;;;3.08;;
61015;SDS011;46902;52.920;6.536;2023-07-31T14:52:28;7.53;;;2.28;;
61015;SDS011;46902;52.920;6.536;2023-07-31T14:54:53;8.40;;;2.88;;
61015;SDS011;46902;52.920;6.536;2023-07-31T14:57:19;8.63;;;2.90;;
61015;SDS011;46902;52.920;6.536;2023-07-31T14:59:45;11.75;;;2.78;;
61015;SDS011;46902;52.920;6.536;2023-07-31T15:02:11;6.47;;;2.22;;
61015;SDS011;46902;52.920;6.536;2023-07-31T15:04:37;9.02;;;2.85;;
61015;SDS011;46902;52.920;6.536;2023-07-31T15:07:02;7.85;;;2.97;;
61015;SDS011;46902;52.920;6.536;2023-07-31T15:09:28;7.82;;;2.63;;